Embarrass, Wisconsin
Current Conditions -  °F | °C
As of 3:35 PM on Thursday 23 Oct 2014 (Local Time) from KCLI Reporting Station
Drizzle Drizzle  
Wind Chill:   Ceiling: 1600
Heat Index:   Visibility: 5mi
Dew Point:   Wind: 6mph
Humidity: 93%   Direction: 170°S
Pressure: 30.04"   Gusts: NA
Location:  44.67°N, 88.71°W
Report Text: KCLI 232035Z AUTO 17005KT 5SM DZ SCT008 OVC016 08/07 A3004 RMK AO2
Loading
Personal Weather Stations






























Interactive Weather Map
Tropical Storm Tracking
New forecast layout! Learn more

10-Day Weather Forecast

Advertisements
Track Severe Weather on mobile